Time;durP1;ratioP1;P1;durP2;ratioP2;P2;SDS_P1;SDS_P2;PMS_P1;PMS_P2;Temp;Humidity;BMP_temperature;BMP_pressure;BME280_temperature;BME280_humidity;BME280_pressure;Samples;Min_cycle;Max_cycle;Signal;HPM_P1;HPM_P2
2022/08/25 00:01:47;;;;;;;4.10;2.70;;;;;;;-145.69;100.00;70992.50;5072835;28;20234;-77
2022/08/25 00:04:16;;;;;;;5.07;2.90;;;;;;;-145.69;100.00;71000.47;5071445;28;20943;-76
2022/08/25 00:06:43;;;;;;;3.42;2.83;;;;;;;-145.69;100.00;70984.53;5072704;28;20202;-76
2022/08/25 00:09:13;;;;;;;6.50;2.65;;;;;;;-145.69;100.00;70996.47;5072457;28;20203;-76
2022/08/25 00:11:40;;;;;;;4.15;2.47;;;;;;;-145.69;100.00;71002.44;5072911;28;20198;-76
2022/08/25 00:14:11;;;;;;;4.13;2.40;;;;;;;-145.69;100.00;71024.34;5072870;28;20320;-76
2022/08/25 00:16:38;;;;;;;4.00;2.67;;;;;;;-145.69;100.00;71020.34;5072669;28;20209;-79
2022/08/25 00:19:09;;;;;;;4.03;2.63;;;;;;;-145.69;100.00;71008.41;5072343;28;20205;-76
2022/08/25 00:21:35;;;;;;;3.40;2.50;;;;;;;-145.69;100.00;71004.44;5052384;28;20235;-77
2022/08/25 00:24:03;;;;;;;4.18;2.95;;;;;;;-145.69;100.00;71020.34;5052776;28;20203;-76
2022/08/25 00:26:31;;;;;;;3.15;2.53;;;;;;;-145.69;100.00;71020.34;5052672;28;20199;-77
2022/08/25 00:28:57;;;;;;;4.40;2.72;;;;;;;-145.69;100.00;71020.34;5052683;28;20199;-76
2022/08/25 00:31:24;;;;;;;3.45;2.67;;;;;;;-145.69;100.00;71020.34;5055952;28;20194;-78
2022/08/25 00:33:51;;;;;;;5.93;2.95;;;;;;;-145.69;100.00;71016.38;5056613;28;20207;-77
2022/08/25 00:36:19;;;;;;;5.07;2.67;;;;;;;-145.69;100.00;71020.34;5052259;28;20203;-77
2022/08/25 00:38:47;;;;;;;5.03;3.03;;;;;;;-145.69;100.00;71020.34;5052538;28;20200;-77
2022/08/25 00:41:17;;;;;;;4.25;2.60;;;;;;;-145.69;100.00;71038.25;5052547;28;20234;-76
2022/08/25 00:43:49;;;;;;;3.83;2.58;;;;;;;-145.69;100.00;71024.34;5060879;28;20218;-76
2022/08/25 00:46:20;;;;;;;6.10;3.15;;;;;;;-145.69;100.00;71006.44;5072437;28;20207;-77
2022/08/25 00:48:50;;;;;;;4.72;2.70;;;;;;;-145.69;100.00;71002.44;5072441;28;20242;-78
2022/08/25 00:51:23;;;;;;;3.90;2.85;;;;;;;-145.69;100.00;71002.44;5072323;28;20206;-78
2022/08/25 00:53:50;;;;;;;6.18;2.63;;;;;;;-145.69;100.00;71002.44;5072535;28;20199;-79
2022/08/25 00:56:17;;;;;;;3.60;2.47;;;;;;;-145.69;100.00;70998.47;5071849;28;20651;-77
2022/08/25 00:58:45;;;;;;;3.60;2.42;;;;;;;-145.69;100.00;71000.47;5072793;28;20671;-78
2022/08/25 01:01:12;;;;;;;5.65;2.67;;;;;;;-145.69;100.00;71002.44;5067779;28;20693;-76
2022/08/25 01:03:39;;;;;;;3.38;2.45;;;;;;;-145.69;100.00;71004.44;5056087;28;20203;-76
2022/08/25 01:06:06;;;;;;;6.85;2.80;;;;;;;-145.69;100.00;71004.44;5056044;28;20298;-76
2022/08/25 01:08:33;;;;;;;6.28;2.88;;;;;;;-145.69;100.00;71020.34;5070527;28;20210;-76
2022/08/25 01:11:03;;;;;;;3.70;2.70;;;;;;;-145.69;100.00;71016.38;5075750;28;20195;-76
2022/08/25 01:13:34;;;;;;;6.13;2.85;;;;;;;-145.69;100.00;71024.34;5075556;28;20198;-76
2022/08/25 01:16:02;;;;;;;4.45;2.58;;;;;;;-145.69;100.00;71026.31;5075930;28;20203;-76
2022/08/25 01:18:29;;;;;;;4.25;2.60;;;;;;;-145.69;100.00;71034.28;5075635;28;20560;-76
2022/08/25 01:20:58;;;;;;;6.57;2.95;;;;;;;-145.69;100.00;71028.31;5075403;28;20199;-77
2022/08/25 01:23:25;;;;;;;4.63;2.83;;;;;;;-145.69;100.00;71008.41;5075593;28;20234;-76
2022/08/25 01:25:59;;;;;;;8.27;3.13;;;;;;;-145.69;100.00;71008.41;5075489;28;20198;-76
2022/08/25 01:28:26;;;;;;;4.07;2.78;;;;;;;-145.69;100.00;71010.41;5075829;28;20206;-76
2022/08/25 01:30:53;;;;;;;4.00;3.10;;;;;;;-145.69;100.00;71012.41;5075593;28;20222;-76
2022/08/25 01:33:20;;;;;;;5.25;2.60;;;;;;;-145.69;100.00;71034.28;5075575;28;20229;-77
2022/08/25 01:35:47;;;;;;;5.72;2.70;;;;;;;-145.69;100.00;71028.31;5075380;28;20206;-76
2022/08/25 01:38:16;;;;;;;3.60;2.88;;;;;;;-145.69;100.00;71048.22;5075203;28;20676;-77
2022/08/25 01:40:43;;;;;;;3.78;2.80;;;;;;;-145.69;100.00;71064.13;5075018;28;20561;-77
2022/08/25 01:43:21;;;;;;;5.65;3.17;;;;;;;-145.69;100.00;71064.13;5074989;28;20230;-76
2022/08/25 01:45:48;;;;;;;6.05;3.20;;;;;;;-145.69;100.00;71093.97;5075249;28;20230;-76
2022/08/25 01:48:16;;;;;;;4.10;3.10;;;;;;;-145.69;100.00;71099.94;5074823;28;20226;-77
2022/08/25 01:50:43;;;;;;;8.55;3.08;;;;;;;-145.69;100.00;71103.94;5074944;28;20206;-78
2022/08/25 01:53:19;;;;;;;9.60;3.33;;;;;;;-145.69;100.00;71103.94;5073729;28;20434;-77
2022/08/25 01:55:52;;;;;;;5.10;3.28;;;;;;;-145.69;100.00;71109.91;5074835;28;20205;-77
2022/08/25 01:58:19;;;;;;;3.50;3.10;;;;;;;-145.69;100.00;71119.84;5075017;28;20293;-78
2022/08/25 02:00:47;;;;;;;6.45;3.40;;;;;;;-145.69;100.00;71119.84;5074953;28;20199;-77
2022/08/25 02:03:13;;;;;;;4.82;3.70;;;;;;;-145.69;100.00;71103.94;5074471;28;20226;-76
2022/08/25 02:05:40;;;;;;;5.15;3.72;;;;;;;-145.69;100.00;71113.88;5074760;28;20297;-77
2022/08/25 02:08:07;;;;;;;5.43;3.40;;;;;;;-145.69;100.00;71127.81;5074596;28;20197;-77
2022/08/25 02:10:35;;;;;;;5.22;3.38;;;;;;;-145.69;100.00;71113.88;5074443;28;20199;-78
2022/08/25 02:13:01;;;;;;;8.23;4.07;;;;;;;-145.69;100.00;71119.84;5074589;28;20298;-75
2022/08/25 02:15:28;;;;;;;6.90;3.72;;;;;;;-145.69;100.00;71115.88;5074650;28;20198;-77
2022/08/25 02:17:54;;;;;;;6.28;3.90;;;;;;;-145.69;100.00;71113.88;5074473;28;20209;-77
2022/08/25 02:20:22;;;;;;;6.50;3.70;;;;;;;-145.69;100.00;71093.97;5074111;28;20657;-76
2022/08/25 02:22:50;;;;;;;6.70;2.95;;;;;;;-145.69;100.00;71099.94;5074305;28;20227;-77
2022/08/25 02:25:16;;;;;;;5.63;4.13;;;;;;;-145.69;100.00;71080.06;5074250;28;20207;-76
2022/08/25 02:27:45;;;;;;;6.70;3.65;;;;;;;-145.69;100.00;71076.06;5074420;28;20195;-76
2022/08/25 02:30:17;;;;;;;6.28;3.97;;;;;;;-145.69;100.00;71093.97;5074293;28;20230;-77
2022/08/25 02:32:43;;;;;;;9.32;4.47;;;;;;;-145.69;100.00;71078.06;5073889;28;20199;-76
2022/08/25 02:35:10;;;;;;;8.82;4.18;;;;;;;-145.69;100.00;71072.09;5074441;28;20574;-77
2022/08/25 02:37:37;;;;;;;6.38;4.38;;;;;;;-145.69;100.00;71066.13;5067073;28;20204;-77
2022/08/25 02:40:05;;;;;;;6.50;3.85;;;;;;;-145.69;100.00;71068.13;5054296;28;20210;-76
2022/08/25 02:42:32;;;;;;;5.32;3.70;;;;;;;-145.69;100.00;71086.03;5053987;28;20327;-77
2022/08/25 02:44:59;;;;;;;5.90;4.25;;;;;;;-145.69;100.00;71076.06;5069450;28;20202;-77
2022/08/25 02:47:26;;;;;;;6.35;3.85;;;;;;;-145.69;100.00;71074.09;5073979;28;20203;-77
2022/08/25 02:49:53;;;;;;;8.82;4.20;;;;;;;-145.69;100.00;71060.16;5074051;28;20200;-77
2022/08/25 02:52:20;;;;;;;6.10;4.18;;;;;;;-145.69;100.00;71046.22;5073886;28;20672;-76
2022/08/25 02:54:46;;;;;;;6.80;4.07;;;;;;;-145.69;100.00;71032.28;5073785;28;20286;-77
2022/08/25 02:57:14;;;;;;;6.07;3.85;;;;;;;-145.69;100.00;71030.31;5073265;28;20201;-77
2022/08/25 02:59:41;;;;;;;6.00;4.07;;;;;;;-145.69;100.00;71042.25;5073538;28;20245;-76
2022/08/25 03:02:09;;;;;;;5.10;3.80;;;;;;;-145.69;100.00;71056.16;5073451;28;20222;-76
2022/08/25 03:04:35;;;;;;;4.53;3.40;;;;;;;-145.69;100.00;71080.06;5073723;28;20612;-76
2022/08/25 03:07:02;;;;;;;6.07;3.22;;;;;;;-145.69;100.00;71099.94;5073674;28;20203;-77
2022/08/25 03:09:29;;;;;;;5.35;3.65;;;;;;;-145.69;100.00;71107.91;5073285;28;20207;-76
2022/08/25 03:11:55;;;;;;;6.13;3.97;;;;;;;-145.69;100.00;71131.78;5073467;28;20213;-77
2022/08/25 03:14:21;;;;;;;8.55;4.40;;;;;;;-145.69;100.00;71143.72;5073291;28;20565;-76
2022/08/25 03:16:48;;;;;;;7.65;3.95;;;;;;;-145.69;100.00;71151.69;5073299;28;20194;-76
2022/08/25 03:19:16;;;;;;;7.45;4.38;;;;;;;-145.69;100.00;71147.69;5073393;28;20203;-77
2022/08/25 03:21:46;;;;;;;5.38;4.15;;;;;;;-145.69;100.00;71151.69;5072605;28;20198;-76
2022/08/25 03:24:12;;;;;;;8.95;4.65;;;;;;;-145.69;100.00;71147.69;5073299;28;20692;-76
2022/08/25 03:26:54;;;;;;;10.20;4.13;;;;;;;-145.69;100.00;71137.75;5072969;28;20198;-76
2022/08/25 03:29:22;;;;;;;6.95;4.93;;;;;;;-145.69;100.00;71149.69;5073447;28;20241;-76
2022/08/25 03:31:49;;;;;;;7.88;4.93;;;;;;;-145.69;100.00;71147.69;5072029;28;20460;-77
2022/08/25 03:34:19;;;;;;;7.65;4.28;;;;;;;-145.69;100.00;71163.63;5073122;28;20724;-77
2022/08/25 03:36:47;;;;;;;6.45;4.30;;;;;;;-145.69;100.00;71171.56;5073267;28;20198;-77
2022/08/25 03:39:14;;;;;;;8.18;5.15;;;;;;;-145.69;100.00;71163.63;5072980;28;20240;-77
2022/08/25 03:41:41;;;;;;;7.97;4.38;;;;;;;-145.69;100.00;71167.59;5072899;28;20206;-77
2022/08/25 03:44:08;;;;;;;8.82;5.05;;;;;;;-145.69;100.00;71175.56;5073133;28;20202;-77
2022/08/25 03:46:40;;;;;;;9.35;4.72;;;;;;;-145.69;100.00;71183.50;5073153;28;20226;-77
2022/08/25 03:49:08;;;;;;;10.75;5.00;;;;;;;-145.69;100.00;71193.47;5072622;28;20233;-78
2022/08/25 03:51:40;;;;;;;7.03;4.60;;;;;;;-145.69;100.00;71205.41;5072906;28;20259;-76
2022/08/25 03:54:07;;;;;;;5.97;4.22;;;;;;;-145.69;100.00;71221.31;5072837;28;20206;-77
2022/08/25 03:56:34;;;;;;;9.02;5.30;;;;;;;-145.69;100.00;71211.38;5073029;28;20206;-77
2022/08/25 03:59:00;;;;;;;8.00;5.10;;;;;;;-145.69;100.00;71213.38;5072604;28;20205;-78
2022/08/25 04:01:27;;;;;;;9.10;4.85;;;;;;;-145.69;100.00;71215.34;5072731;28;20560;-77
2022/08/25 04:03:54;;;;;;;6.93;4.95;;;;;;;-145.69;100.00;71231.28;5072799;28;20237;-76
2022/08/25 04:06:22;;;;;;;8.25;5.25;;;;;;;-145.69;100.00;71249.19;5072732;28;20273;-76
2022/08/25 04:08:51;;;;;;;6.68;4.70;;;;;;;-145.69;100.00;71273.06;5072282;28;20269;-77
2022/08/25 04:11:20;;;;;;;9.32;5.65;;;;;;;-145.69;100.00;71285.00;5072860;28;20237;-76
2022/08/25 04:13:47;;;;;;;12.15;5.25;;;;;;;-145.69;100.00;71286.97;5072806;28;20234;-77
2022/08/25 04:16:17;;;;;;;9.13;5.45;;;;;;;-145.69;100.00;71286.97;5072519;28;20645;-76
2022/08/25 04:18:46;;;;;;;8.25;4.90;;;;;;;-145.69;100.00;71302.91;5072363;28;20668;-77
2022/08/25 04:21:13;;;;;;;6.90;4.63;;;;;;;-145.69;100.00;71304.91;5071858;28;20553;-77
2022/08/25 04:23:41;;;;;;;9.93;5.28;;;;;;;-145.69;100.00;71308.88;5072650;28;20226;-77
2022/08/25 04:26:11;;;;;;;8.15;5.70;;;;;;;-145.69;100.00;71320.81;5072532;28;20661;-77
2022/08/25 04:28:38;;;;;;;7.15;5.15;;;;;;;-145.69;100.00;71332.75;5072684;28;20208;-76
2022/08/25 04:31:06;;;;;;;7.32;4.95;;;;;;;-145.69;100.00;71346.69;5072415;28;20206;-77
2022/08/25 04:33:33;;;;;;;9.32;5.30;;;;;;;-145.69;100.00;71350.66;5074113;28;20191;-76
2022/08/25 04:35:59;;;;;;;9.32;5.90;;;;;;;-145.69;100.00;71348.66;5076510;28;20203;-77
2022/08/25 04:38:26;;;;;;;8.63;5.28;;;;;;;-145.69;100.00;71330.75;5073765;28;20203;-76
2022/08/25 04:40:56;;;;;;;11.10;5.72;;;;;;;-145.69;100.00;71332.75;5056073;28;20650;-76
2022/08/25 04:43:24;;;;;;;13.93;5.68;;;;;;;-145.69;100.00;71330.75;5059808;28;20215;-76
2022/08/25 04:45:50;;;;;;;8.60;5.30;;;;;;;-145.69;100.00;71320.81;5076212;28;20194;-76
2022/08/25 04:48:17;;;;;;;10.25;5.60;;;;;;;-145.69;100.00;71322.81;5076102;28;20237;-76
2022/08/25 04:50:44;;;;;;;9.63;5.72;;;;;;;-145.69;100.00;71320.81;5076375;28;20198;-76
2022/08/25 04:53:10;;;;;;;13.02;6.93;;;;;;;-145.69;100.00;71298.94;5076097;28;20205;-76
2022/08/25 04:55:41;;;;;;;18.23;9.30;;;;;;;-145.69;100.00;71279.03;5075770;28;20193;-76
2022/08/25 04:58:07;;;;;;;17.08;7.63;;;;;;;-145.69;100.00;71286.97;5076050;28;20206;-78
2022/08/25 05:00:36;;;;;;;13.25;7.43;;;;;;;-145.69;100.00;71286.97;5075923;28;20199;-77
2022/08/25 05:03:03;;;;;;;12.95;7.28;;;;;;;-145.69;100.00;71286.97;5076058;28;20230;-76
2022/08/25 05:05:30;;;;;;;12.73;7.00;;;;;;;-145.69;100.00;71283.00;5076009;28;20199;-76
2022/08/25 05:07:56;;;;;;;16.92;8.05;;;;;;;-145.69;100.00;71261.13;5075486;28;20661;-76
2022/08/25 05:10:24;;;;;;;11.95;7.43;;;;;;;-145.69;100.00;71255.16;5075859;28;20214;-77
2022/08/25 05:12:50;;;;;;;17.00;8.77;;;;;;;-145.69;100.00;71217.34;5075872;28;20199;-76
2022/08/25 05:18:02;;;;;;;16.80;8.68;;;;;;;-145.69;100.00;71171.56;5075784;28;20669;-76
2022/08/25 05:20:29;;;;;;;15.80;8.75;;;;;;;-145.69;100.00;71151.69;5075474;28;20195;-76
2022/08/25 05:22:56;;;;;;;14.65;8.15;;;;;;;-145.69;100.00;71129.78;5075655;28;20230;-76
2022/08/25 05:25:23;;;;;;;13.27;7.10;;;;;;;-145.69;100.00;71135.75;5075344;28;20194;-77
2022/08/25 05:27:49;;;;;;;12.98;7.78;;;;;;;-145.69;100.00;71123.81;5075396;28;20203;-77
2022/08/25 05:30:16;;;;;;;14.02;8.48;;;;;;;-145.69;100.00;71095.97;5074458;28;20427;-76
2022/08/25 05:32:43;;;;;;;15.43;8.70;;;;;;;-145.69;100.00;71068.13;5075179;28;20203;-77
2022/08/25 05:35:11;;;;;;;13.98;7.28;;;;;;;-145.69;100.00;71060.16;5075806;28;20199;-77
2022/08/25 05:37:38;;;;;;;9.70;7.00;;;;;;;-145.69;100.00;71060.16;5075481;28;20264;-77
2022/08/25 05:40:07;;;;;;;14.10;5.82;;;;;;;-145.69;100.00;71064.13;5075286;28;20198;-76
2022/08/25 05:42:33;;;;;;;9.45;6.05;;;;;;;-145.69;100.00;71072.09;5075396;28;20260;-78
2022/08/25 05:45:00;;;;;;;9.40;5.70;;;;;;;-145.69;100.00;71080.06;5073946;28;20195;-77
2022/08/25 05:47:26;;;;;;;13.82;7.47;;;;;;;-145.69;100.00;71032.28;5074982;28;20716;-76
2022/08/25 05:49:53;;;;;;;9.18;6.30;;;;;;;-145.69;100.00;71008.41;5074951;28;20228;-77
2022/08/25 05:52:21;;;;;;;8.60;5.70;;;;;;;-145.69;100.00;71012.41;5075110;28;20223;-77
2022/08/25 05:54:47;;;;;;;11.40;6.32;;;;;;;-145.69;100.00;71008.41;5074726;28;20222;-77
2022/08/25 05:57:14;;;;;;;9.93;5.75;;;;;;;-145.69;100.00;71002.44;5074926;28;20205;-77
2022/08/25 05:59:40;;;;;;;9.32;5.93;;;;;;;-145.69;100.00;70980.56;5075119;28;20206;-77
2022/08/25 06:04:53;;;;;;;7.53;4.90;;;;;;;-145.69;100.00;71012.41;5074559;28;20515;-78
2022/08/25 06:07:21;;;;;;;8.10;5.30;;;;;;;-145.69;100.00;71010.41;5074436;28;20210;-76
2022/08/25 06:09:48;;;;;;;7.82;5.18;;;;;;;-145.69;100.00;70996.47;5074589;28;20194;-76
2022/08/25 06:12:15;;;;;;;10.57;5.85;;;;;;;-145.69;100.00;70970.63;5074862;28;20199;-77
2022/08/25 06:14:42;;;;;;;10.13;5.25;;;;;;;-145.69;100.00;70924.84;5074507;28;20206;-77
2022/08/25 06:17:09;;;;;;;10.95;5.00;;;;;;;-145.69;100.00;70912.91;5074808;28;20609;-77
2022/08/25 06:19:36;;;;;;;9.10;5.38;;;;;;;-145.69;100.00;70895.00;5074089;28;20237;-77
2022/08/25 06:22:02;;;;;;;9.52;5.13;;;;;;;-145.69;100.00;70881.09;5074455;28;20228;-76
2022/08/25 06:24:30;;;;;;;12.43;6.43;;;;;;;-145.69;100.00;70861.19;5074341;28;20234;-77
2022/08/25 06:26:57;;;;;;;8.77;5.53;;;;;;;-145.69;100.00;70845.28;5074294;28;20378;-77
2022/08/25 06:29:25;;;;;;;10.95;5.78;;;;;;;-145.69;100.00;70837.31;5074408;28;20210;-76
2022/08/25 06:31:51;;;;;;;10.48;5.90;;;;;;;-145.69;100.00;70825.38;5073802;28;20221;-77
2022/08/25 06:34:18;;;;;;;12.57;6.45;;;;;;;-145.69;100.00;70805.47;5074292;28;20209;-76
2022/08/25 06:36:45;;;;;;;9.27;5.15;;;;;;;-145.69;100.00;70787.56;5064331;28;20206;-76
2022/08/25 06:39:11;;;;;;;9.38;5.75;;;;;;;-145.69;100.00;70769.66;5054306;28;20206;-78
2022/08/25 06:41:39;;;;;;;9.63;5.72;;;;;;;-145.69;100.00;70755.75;5053725;28;20431;-78
2022/08/25 06:44:06;;;;;;;8.90;5.47;;;;;;;-145.69;100.00;70737.84;5069189;28;20593;-78
2022/08/25 06:46:34;;;;;;;9.13;5.45;;;;;;;-145.69;100.00;70717.94;5074039;28;20194;-78
2022/08/25 06:49:00;;;;;;;9.95;5.10;;;;;;;-145.69;100.00;70706.00;5073472;28;20237;-77
2022/08/25 06:51:27;;;;;;;11.52;5.05;;;;;;;-145.69;100.00;70692.06;5074027;28;20210;-78
2022/08/25 06:53:53;;;;;;;9.40;5.20;;;;;;;-145.69;100.00;70680.13;5073692;28;20198;-78
2022/08/25 06:56:21;;;;;;;7.55;4.85;;;;;;;-145.69;100.00;70666.22;5072173;28;20603;-77
2022/08/25 06:58:49;;;;;;;10.93;5.20;;;;;;;-145.69;100.00;70642.34;5073809;28;20308;-78
2022/08/25 07:01:19;;;;;;;8.85;4.75;;;;;;;-145.69;100.00;70640.34;5073443;28;20547;-78
2022/08/25 07:03:46;;;;;;;9.55;4.75;;;;;;;-145.69;100.00;70626.41;5073501;28;20262;-77
2022/08/25 07:06:12;;;;;;;8.88;4.45;;;;;;;-145.69;100.00;70616.47;5073677;28;20209;-77
2022/08/25 07:08:39;;;;;;;7.70;4.30;;;;;;;-145.69;100.00;70604.53;5073339;28;20199;-78
2022/08/25 07:11:06;;;;;;;8.82;4.68;;;;;;;-145.69;100.00;70594.59;5073642;28;20195;-76
2022/08/25 07:13:32;;;;;;;8.20;4.22;;;;;;;-145.69;100.00;70596.59;5073510;28;20232;-77
2022/08/25 07:16:01;;;;;;;5.10;3.88;;;;;;;-145.69;100.00;70576.69;5073395;28;20207;-76
2022/08/25 07:18:28;;;;;;;7.32;4.15;;;;;;;-145.69;100.00;70570.72;5073307;28;20205;-76
2022/08/25 07:20:55;;;;;;;5.60;3.97;;;;;;;-145.69;100.00;70548.84;5073487;28;20206;-76
2022/08/25 07:23:22;;;;;;;6.25;4.15;;;;;;;-145.69;100.00;70550.81;5073457;28;20222;-76
2022/08/25 07:25:49;;;;;;;4.82;3.58;;;;;;;-145.69;100.00;70530.94;5073305;28;20210;-76
2022/08/25 07:28:16;;;;;;;9.50;3.80;;;;;;;-145.69;100.00;70526.94;5073270;28;20230;-75
2022/08/25 07:30:44;;;;;;;7.10;3.80;;;;;;;-145.69;99.75;70509.03;5072769;28;20665;-76
2022/08/25 07:33:12;;;;;;;5.55;3.58;;;;;;;-145.69;100.00;70495.13;5072992;28;20199;-77
2022/08/25 07:35:38;;;;;;;5.88;4.30;;;;;;;-145.69;99.63;70485.16;5073258;28;20560;-76
2022/08/25 07:38:07;;;;;;;5.75;3.95;;;;;;;-145.69;98.67;70465.28;5072765;28;20194;-76
2022/08/25 07:40:36;;;;;;;4.85;3.22;;;;;;;-145.69;96.39;70459.31;5073136;28;20203;-76
2022/08/25 07:43:06;;;;;;;7.50;3.80;;;;;;;-145.69;95.86;70441.41;5072570;28;20198;-76
2022/08/25 07:45:35;;;;;;;5.60;3.53;;;;;;;-145.69;92.82;70449.38;5073227;28;20254;-76
2022/08/25 07:48:05;;;;;;;7.28;3.72;;;;;;;-145.69;89.09;70439.41;5072620;28;20222;-76
2022/08/25 07:50:33;;;;;;;7.70;3.90;;;;;;;-145.69;90.45;70447.38;5072906;28;20203;-77
2022/08/25 07:53:00;;;;;;;5.70;3.33;;;;;;;-145.69;91.79;70445.38;5072896;28;20629;-77
2022/08/25 07:55:29;;;;;;;5.65;3.88;;;;;;;-145.69;94.22;70435.44;5072342;28;20573;-76
2022/08/25 07:57:58;;;;;;;6.43;3.67;;;;;;;-145.69;90.35;70427.47;5072776;28;20206;-76
2022/08/25 08:00:28;;;;;;;8.57;4.00;;;;;;;-145.69;92.36;70423.50;5072139;28;20202;-76
2022/08/25 08:02:55;;;;;;;5.68;3.78;;;;;;;-145.69;95.26;70403.59;5083094;28;20198;-81
2022/08/25 08:05:23;;;;;;;6.57;3.70;;;;;;;-145.69;88.79;70407.59;5084066;28;20656;-78
2022/08/25 08:07:51;;;;;;;5.40;3.72;;;;;;;-145.69;90.50;70395.66;5072038;28;20199;-76
2022/08/25 08:10:17;;;;;;;9.25;3.50;;;;;;;-145.69;89.02;70395.66;5072505;28;20198;-78
2022/08/25 08:12:44;;;;;;;6.63;4.28;;;;;;;-145.69;89.82;70409.56;5072516;28;20569;-80
2022/08/25 08:15:11;;;;;;;7.35;3.47;;;;;;;-145.69;91.01;70405.59;5073002;28;20206;-79
2022/08/25 08:17:38;;;;;;;5.65;3.80;;;;;;;-145.69;89.05;70393.66;5072484;28;20398;-78
2022/08/25 08:20:07;;;;;;;5.05;3.10;;;;;;;-145.69;86.24;70399.63;5072500;28;20198;-77
2022/08/25 08:22:34;;;;;;;5.05;3.30;;;;;;;-145.69;87.44;70383.72;5071699;28;20434;-79
2022/08/25 08:25:02;;;;;;;5.18;3.17;;;;;;;-145.69;85.70;70363.81;5072494;28;20231;-79
2022/08/25 08:27:28;;;;;;;3.70;3.00;;;;;;;-145.69;85.61;70343.94;5072585;28;20198;-79
2022/08/25 08:29:55;;;;;;;6.03;3.15;;;;;;;-145.69;84.05;70351.88;5072457;28;20210;-77
2022/08/25 08:32:22;;;;;;;4.57;3.17;;;;;;;-145.69;85.07;70337.97;5072430;28;20630;-77
2022/08/25 08:34:48;;;;;;;4.75;3.58;;;;;;;-145.69;83.17;70335.97;5072490;28;20209;-77
2022/08/25 08:37:15;;;;;;;5.63;2.85;;;;;;;-145.69;80.55;70337.97;5062057;28;20196;-77
2022/08/25 08:39:42;;;;;;;4.47;3.10;;;;;;;-145.69;82.05;70330.00;5067983;28;20195;-78
2022/08/25 08:42:27;;;;;;;4.07;3.13;;;;;;;-145.69;81.67;70335.97;5072542;28;20210;-80
2022/08/25 08:45:11;;;;;;;6.72;3.10;;;;;;;-145.69;81.65;70330.00;5072399;28;20222;-79
2022/08/25 08:47:51;;;;;;;3.90;2.78;;;;;;;-145.69;82.45;70328.00;5072291;28;20234;-79
2022/08/25 08:50:26;;;;;;;4.28;2.60;;;;;;;-145.69;77.04;70296.19;5072026;28;20787;-79
2022/08/25 08:53:00;;;;;;;4.07;2.75;;;;;;;-145.69;78.42;70300.16;5072504;28;20214;-77
2022/08/25 08:55:31;;;;;;;3.25;2.42;;;;;;;-145.69;81.68;70304.13;5072363;28;20650;-78
2022/08/25 08:58:02;;;;;;;4.30;2.65;;;;;;;-145.69;79.33;70314.09;5072075;28;20668;-76
2022/08/25 09:00:32;;;;;;;5.55;3.03;;;;;;;-145.69;78.53;70306.13;5071807;28;20189;-80
2022/08/25 09:03:04;;;;;;;6.88;2.80;;;;;;;-145.69;75.76;70296.19;5072164;28;20199;-79
2022/08/25 09:05:45;;;;;;;3.70;2.70;;;;;;;-145.69;77.63;70280.28;5072299;28;20229;-76
2022/08/25 09:08:13;;;;;;;3.17;2.60;;;;;;;-145.69;77.65;70282.25;5071593;28;20434;-77
2022/08/25 09:10:49;;;;;;;7.25;3.03;;;;;;;-145.69;76.46;70278.28;5071818;28;20664;-77
2022/08/25 09:13:29;;;;;;;3.70;2.75;;;;;;;-145.69;77.09;70256.41;5072304;28;20293;-76
2022/08/25 09:18:58;;;;;;;3.30;2.50;;;;;;;-145.69;77.20;70256.41;5072152;28;20198;-80
2022/08/25 09:21:32;;;;;;;4.07;2.30;;;;;;;-145.69;76.25;70234.50;5075003;28;20661;-78
2022/08/25 09:24:17;;;;;;;4.43;2.70;;;;;;;-145.69;73.04;70236.50;5075185;28;20222;-80
2022/08/25 09:26:55;;;;;;;3.42;2.70;;;;;;;-145.69;75.33;70228.53;5075690;28;20203;-77
2022/08/25 09:29:28;;;;;;;4.00;2.60;;;;;;;-145.69;75.04;70226.56;5075400;28;20233;-78
2022/08/25 09:32:07;;;;;;;3.60;2.78;;;;;;;-145.69;72.42;70208.66;5075452;28;20199;-80
2022/08/25 09:34:34;;;;;;;3.88;2.72;;;;;;;-145.69;73.04;70212.63;5073995;28;20443;-78
2022/08/25 09:37:01;;;;;;;4.00;2.25;;;;;;;-145.69;73.92;70240.47;5075462;28;20657;-76
2022/08/25 09:39:28;;;;;;;3.90;2.50;;;;;;;-145.69;74.00;70236.50;5075693;28;20202;-78
2022/08/25 09:41:56;;;;;;;3.45;2.53;;;;;;;-145.69;76.33;70212.63;5075239;28;20230;-77
2022/08/25 09:44:27;;;;;;;3.25;2.50;;;;;;;-145.69;72.75;70196.72;5075356;28;20262;-78
2022/08/25 09:47:00;;;;;;;3.08;2.20;;;;;;;-145.69;68.37;70184.78;5075062;28;20195;-77
2022/08/25 09:49:33;;;;;;;3.47;2.25;;;;;;;-145.69;71.78;70188.75;5075166;28;20325;-77
2022/08/25 09:52:23;;;;;;;4.22;2.25;;;;;;;-145.69;70.22;70178.81;5074937;28;20680;-78
2022/08/25 09:54:50;;;;;;;7.32;2.70;;;;;;;-145.69;68.83;70182.78;5075230;28;20206;-77
2022/08/25 09:57:32;;;;;;;3.38;2.38;;;;;;;-145.69;70.52;70148.97;5075282;28;20199;-79
2022/08/25 10:00:12;;;;;;;3.33;2.25;;;;;;;-145.69;72.54;70125.09;5074883;28;20194;-76
2022/08/25 10:02:41;;;;;;;3.25;2.28;;;;;;;-145.69;67.84;70109.19;5074841;28;20198;-76
2022/08/25 10:05:20;;;;;;;4.35;2.35;;;;;;;-145.69;67.48;70115.16;5074934;28;20269;-76
2022/08/25 10:07:54;;;;;;;4.88;2.08;;;;;;;-145.69;66.99;70097.25;5075175;28;20210;-76
2022/08/25 10:10:29;;;;;;;2.20;1.92;;;;;;;-145.69;68.02;70103.22;5074424;28;20683;-76
2022/08/25 10:12:58;;;;;;;2.85;2.30;;;;;;;-145.69;68.94;70089.31;5074445;28;20206;-75
2022/08/25 10:15:28;;;;;;;3.42;2.30;;;;;;;-145.69;66.14;70053.50;5074328;28;20210;-76
2022/08/25 10:17:58;;;;;;;2.35;2.00;;;;;;;-145.69;62.44;70057.47;5074566;28;20290;-76
2022/08/25 10:20:27;;;;;;;3.53;2.28;;;;;;;-145.69;63.89;70073.38;5074572;28;20195;-76
2022/08/25 10:23:10;;;;;;;2.35;1.90;;;;;;;-145.69;64.07;70101.25;5074281;28;20195;-76
2022/08/25 10:25:44;;;;;;;3.80;2.08;;;;;;;-145.69;67.75;70083.34;5074274;28;20291;-76
2022/08/25 10:28:17;;;;;;;3.10;2.08;;;;;;;-145.69;64.69;70049.50;5074434;28;20203;-76
2022/08/25 10:30:57;;;;;;;7.93;2.22;;;;;;;-145.69;62.62;70037.59;5074242;28;20206;-76
2022/08/25 10:33:41;;;;;;;2.42;2.00;;;;;;;-145.69;62.97;70029.63;5074366;28;20679;-75
2022/08/25 10:36:17;;;;;;;3.20;2.13;;;;;;;-145.69;63.86;70009.72;5064266;28;20638;-75
2022/08/25 10:38:52;;;;;;;5.35;2.10;;;;;;;-145.69;59.46;70037.59;5054347;28;20206;-75
2022/08/25 10:41:38;;;;;;;2.58;1.92;;;;;;;-145.69;56.56;70033.59;5054221;28;20602;-75
2022/08/25 10:47:29;;;;;;;3.25;1.80;;;;;;;-145.69;62.29;69989.84;5062250;28;20205;-76
2022/08/25 10:49:59;;;;;;;2.80;1.77;;;;;;;-145.69;58.96;69973.94;5073803;28;20199;-76
2022/08/25 10:52:38;;;;;;;4.30;2.47;;;;;;;-145.69;60.01;69962.00;5074022;28;20203;-76
2022/08/25 10:55:13;;;;;;;3.92;2.00;;;;;;;-145.69;58.49;69920.22;5073425;28;20293;-75
2022/08/25 10:57:49;;;;;;;2.28;1.90;;;;;;;-145.69;53.12;69918.22;5074003;28;20226;-77
2022/08/25 11:00:22;;;;;;;3.33;1.73;;;;;;;-145.69;53.58;69888.41;5053934;28;20211;-75
2022/08/25 11:03:23;;;;;;;2.95;1.60;;;;;;;-145.69;53.27;69866.50;5053862;28;20203;-74
2022/08/25 11:06:03;;;;;;;2.38;1.90;;;;;;;-145.69;55.20;69858.56;5053410;28;20712;-76
2022/08/25 11:08:36;;;;;;;2.38;1.85;;;;;;;-145.69;52.46;69850.59;5053734;28;20206;-76
2022/08/25 11:11:10;;;;;;;2.45;1.50;;;;;;;-145.69;52.62;69862.53;5066476;28;20205;-76
2022/08/25 11:13:45;;;;;;;4.45;1.80;;;;;;;-145.69;52.98;69858.56;5073374;28;20261;-77
2022/08/25 11:16:15;;;;;;;4.63;1.75;;;;;;;-145.69;52.32;69842.66;5073102;28;20205;-75
2022/08/25 11:18:50;;;;;;;2.53;1.80;;;;;;;-145.69;52.99;69838.66;5073353;28;20203;-76
2022/08/25 11:21:23;;;;;;;3.83;1.95;;;;;;;-145.69;52.01;69828.72;5073416;28;20194;-76
2022/08/25 11:23:55;;;;;;;3.58;1.73;;;;;;;-145.69;48.87;69846.63;5073011;28;20658;-76
2022/08/25 11:26:32;;;;;;;2.42;1.60;;;;;;;-145.69;51.48;69864.53;5073343;28;20231;-76
2022/08/25 11:29:03;;;;;;;3.03;1.80;;;;;;;-145.69;52.34;69866.50;5073142;28;20203;-76
2022/08/25 11:31:30;;;;;;;2.88;1.88;;;;;;;-145.69;53.39;69840.66;5073142;28;20198;-76
2022/08/25 11:34:01;;;;;;;3.13;2.33;;;;;;;-145.69;51.57;69830.72;5073196;28;20226;-75